WetterOnline ( https://www.wetteronline.ch )

Wetter aktuell Braunschweig

Aktuelles Wetter: Braunschweig/Flughafen (88m)

6-stündlich | Neueste Meldungen
Ortszeit Temperatur Wetter
Do, 09.07. 20:00 19.1° C bedeckt
Do, 09.07. 14:00 19.5° C wolkig
Do, 09.07. 8:00 15.0° C bewölkt
Do, 09.07. 2:00 13.2° C bedeckt
Mi, 08.07. 20:00 14.4° C Regen
Mi, 08.07. 14:00 14.7° C bedeckt
Mi, 08.07. 8:00 11.8° C leichter Regen
Mi, 08.07. 2:00 12.7° C bedeckt
Ortszeit Temperatur Wetter
Fr, 10.07. 1:30 16.5° C bewölkt
Fr, 10.07. 1:20 16.5° C bewölkt
Fr, 10.07. 1:10 16.5° C bedeckt
Fr, 10.07. 1:00 16.6° C Regen
Fr, 10.07. 0:50 16.6° C bedeckt
Fr, 10.07. 0:40 16.7° C leichter Regen
Fr, 10.07. 0:30 16.7° C Sprühregen
Fr, 10.07. 0:00 16.8° C Regen
Do, 09.07. 17:50 21° C bewölkt
Ortszeit Relative Feuchte Sichtweite
Do, 09.07. 20:00 79% 50 km
Do, 09.07. 14:00 85% 50 km
Do, 09.07. 8:00 91% 15 km
Do, 09.07. 2:00 97% 8 km
Mi, 08.07. 20:00 94% 15 km
Mi, 08.07. 14:00 79% 45 km
Mi, 08.07. 8:00 91% 13 km
Mi, 08.07. 2:00 81% 60 km
Ortszeit Relative Feuchte Sichtweite
Fr, 10.07. 1:30 97% 16 km
Fr, 10.07. 1:20 97% -
Fr, 10.07. 1:10 97% -
Fr, 10.07. 1:00 96% 19 km
Fr, 10.07. 0:50 96% -
Fr, 10.07. 0:40 96% -
Fr, 10.07. 0:30 96% 8 km
Fr, 10.07. 0:00 96% 4.1 km
Do, 09.07. 17:50 69% >10 km
Ortszeit Niederschlagsmenge Niederschlagsart
Do, 09.07. 20:00 3 l/m2 in 12 Std. Regen
Do, 09.07. 14:00 3 l/m2 in 6 Std. Regen
Do, 09.07. 8:00 0.2 l/m2 in 12 Std. Regen
Do, 09.07. 2:00 0.2 l/m2 in 6 Std. Regen
Mi, 08.07. 20:00 2 l/m2 in 12 Std. Regen
Mi, 08.07. 14:00 0.3 l/m2 in 6 Std. Regen
Mi, 08.07. 8:00 0.3 l/m2 in 12 Std. Regen
Mi, 08.07. 2:00 0.1 l/m2 in 6 Std. Regen
Ortszeit Niederschlagsmenge Niederschlagsart
Fr, 10.07. 1:30 0.1 l/m2 in 1 Std. Schnee
Fr, 10.07. 1:20 keine Meldung -
Fr, 10.07. 1:10 keine Meldung -
Fr, 10.07. 1:00 0.6 l/m2 in 1 Std. Regen
Fr, 10.07. 0:50 keine Meldung -
Fr, 10.07. 0:40 keine Meldung -
Fr, 10.07. 0:30 0.5 l/m2 in 1 Std. -
Fr, 10.07. 0:00 0.5 l/m2 in 1 Std. Regen
Do, 09.07. 17:50 keine Meldung -
Ortszeit Stärke Spitze Richtung
km/h Bft. km/h Grad Sektor
Do, 09.07. 20:00 18 3 40 240° SW
Do, 09.07. 14:00 17 3 30 230° SW
Do, 09.07. 8:00 7 2 14 150° SO
Do, 09.07. 2:00 4 1 14 130° SO
Mi, 08.07. 20:00 4 1 22 240° SW
Mi, 08.07. 14:00 11 2 18 240° SW
Mi, 08.07. 8:00 6 1 15 250° W
Mi, 08.07. 2:00 7 2 18 240° SW
Ortszeit Stärke Spitze Richtung
km/h Bft. km/h Grad Sektor
Fr, 10.07. 1:30 4 1 11 280° W
Fr, 10.07. 1:20 4 1 - 280° W
Fr, 10.07. 1:10 4 1 - 250° W
Fr, 10.07. 1:00 6 1 17 260° W
Fr, 10.07. 0:50 6 1 - 260° W
Fr, 10.07. 0:40 6 1 - 260° W
Fr, 10.07. 0:30 7 2 18 260° W
Fr, 10.07. 0:00 11 2 22 280° W
Do, 09.07. 17:50 30 5 - 270° W
Ortszeit Untergrenze Bedeckung Gattung
total tief tief mittel hoch
Do, 09.07. 20:00 870 m 8/8 8/8 - - -
Do, 09.07. 14:00 750 m 8/8 3/8 - - -
Do, 09.07. 8:00 1320 m 8/8 7/8 - - -
Do, 09.07. 2:00 1380 m 8/8 8/8 - - -
Mi, 08.07. 20:00 420 m 8/8 8/8 - - -
Mi, 08.07. 14:00 480 m 8/8 8/8 - - -
Mi, 08.07. 8:00 210 m 8/8 8/8 - - -
Mi, 08.07. 2:00 3300 m 8/8 8/8 - - -
Ortszeit Bedeckungsgrad in Achtel und Wolkenuntergrenze
Fr, 10.07. 1:30 1(180m) 7(900m) 7(5400m)
Fr, 10.07. 1:20 1(180m) 7(900m) 7(5400m)
Fr, 10.07. 1:10 2(120m) 8(1500m) 8(5400m)
Fr, 10.07. 1:00 4(150m) 7(870m) 8(1200m)
Fr, 10.07. 0:50 4(150m) 7(870m) 8(1200m)
Fr, 10.07. 0:40 3(120m) 7(390m) 8(1140m)
Fr, 10.07. 0:30 3(150m) 8(810m) 8(1500m)
Fr, 10.07. 0:00 5(210m) 7(360m) 7(570m)
Do, 09.07. 17:50 1-2(840m) 5-7(1350m)
Ortszeit Luftdruck NN (hPa) Tendenz (hPa in 3 Std.)
Do, 09.07. 20:00 1011 + 0,2
Do, 09.07. 14:00 1012 - 0,7
Do, 09.07. 8:00 1014 - 0,8
Do, 09.07. 2:00 1016 - 0,6
Mi, 08.07. 20:00 1016 0,0
Mi, 08.07. 14:00 1016 + 0,3
Mi, 08.07. 8:00 1015 - 0,1
Mi, 08.07. 2:00 1017 - 0,2
Ortszeit Luftdruck NN (hPa) Tendenz (hPa in 3 Std.)
Fr, 10.07. 1:30 1011 - 0,2
Fr, 10.07. 1:20 1011 keine Meldung
Fr, 10.07. 1:10 1011 keine Meldung
Fr, 10.07. 1:00 1011 - 0,3
Fr, 10.07. 0:50 1011 keine Meldung
Fr, 10.07. 0:40 1011 keine Meldung
Fr, 10.07. 0:30 1011 + 0,1
Fr, 10.07. 0:00 1011 + 0,3
Do, 09.07. 17:50 1010 keine Meldung
Ortszeit Schneehöhe (cm)
Do, 09.07. 20:00 -
Do, 09.07. 14:00 -
Do, 09.07. 8:00 -
Do, 09.07. 2:00 -
Mi, 08.07. 20:00 -
Mi, 08.07. 14:00 -
Mi, 08.07. 8:00 -
Mi, 08.07. 2:00 -
Ortszeit Schneehöhe (cm)
Fr, 10.07. 1:30 -
Fr, 10.07. 1:20 -
Fr, 10.07. 1:10 -
Fr, 10.07. 1:00 -
Fr, 10.07. 0:50 -
Fr, 10.07. 0:40 -
Fr, 10.07. 0:30 -
Fr, 10.07. 0:00 -
Do, 09.07. 17:50 -
Link zu dieser Seite / Seite empfehlen

Das Wetter in ...